sensor_id;sensor_type;location;lat;lon;timestamp;P1;durP1;ratioP1;P2;durP2;ratioP2
38312;SDS011;24114;52.260;6.714;2023-05-07T00:01:34;19.50;;;17.80;;
38312;SDS011;24114;52.260;6.714;2023-05-07T00:04:04;20.03;;;18.33;;
38312;SDS011;24114;52.260;6.714;2023-05-07T00:06:32;19.50;;;17.90;;
38312;SDS011;24114;52.260;6.714;2023-05-07T00:09:00;19.17;;;17.57;;
38312;SDS011;24114;52.260;6.714;2023-05-07T00:11:28;19.55;;;17.95;;
38312;SDS011;24114;52.260;6.714;2023-05-07T00:13:55;19.20;;;17.50;;
38312;SDS011;24114;52.260;6.714;2023-05-07T00:16:23;19.13;;;17.53;;
38312;SDS011;24114;52.260;6.714;2023-05-07T00:18:51;20.20;;;18.60;;
38312;SDS011;24114;52.260;6.714;2023-05-07T00:21:21;19.50;;;17.90;;
38312;SDS011;24114;52.260;6.714;2023-05-07T00:23:49;18.67;;;17.20;;
38312;SDS011;24114;52.260;6.714;2023-05-07T00:26:16;20.03;;;18.43;;
38312;SDS011;24114;52.260;6.714;2023-05-07T00:28:44;19.65;;;18.05;;
38312;SDS011;24114;52.260;6.714;2023-05-07T00:31:12;20.13;;;18.50;;
38312;SDS011;24114;52.260;6.714;2023-05-07T00:33:40;19.60;;;18.00;;
38312;SDS011;24114;52.260;6.714;2023-05-07T00:36:08;20.27;;;18.58;;
38312;SDS011;24114;52.260;6.714;2023-05-07T00:38:37;19.85;;;18.25;;
38312;SDS011;24114;52.260;6.714;2023-05-07T00:41:05;20.08;;;18.48;;
38312;SDS011;24114;52.260;6.714;2023-05-07T00:43:33;20.50;;;18.80;;
38312;SDS011;24114;52.260;6.714;2023-05-07T00:46:01;20.73;;;18.95;;
38312;SDS011;24114;52.260;6.714;2023-05-07T00:48:29;20.80;;;19.05;;
38312;SDS011;24114;52.260;6.714;2023-05-07T00:50:57;20.73;;;19.13;;
38312;SDS011;24114;52.260;6.714;2023-05-07T00:53:25;21.10;;;19.42;;
38312;SDS011;24114;52.260;6.714;2023-05-07T00:55:55;19.80;;;18.20;;
38312;SDS011;24114;52.260;6.714;2023-05-07T00:58:23;21.33;;;19.52;;
38312;SDS011;24114;52.260;6.714;2023-05-07T01:00:51;21.08;;;19.27;;
38312;SDS011;24114;52.260;6.714;2023-05-07T01:03:19;21.80;;;20.00;;
38312;SDS011;24114;52.260;6.714;2023-05-07T01:05:48;20.65;;;18.95;;
38312;SDS011;24114;52.260;6.714;2023-05-07T01:08:16;19.85;;;18.15;;
38312;SDS011;24114;52.260;6.714;2023-05-07T01:10:44;19.08;;;17.58;;
38312;SDS011;24114;52.260;6.714;2023-05-07T01:13:14;19.75;;;18.05;;
38312;SDS011;24114;52.260;6.714;2023-05-07T01:15:42;19.33;;;17.73;;
38312;SDS011;24114;52.260;6.714;2023-05-07T01:18:10;19.02;;;17.42;;
38312;SDS011;24114;52.260;6.714;2023-05-07T01:20:38;18.27;;;16.73;;
38312;SDS011;24114;52.260;6.714;2023-05-07T01:23:07;18.55;;;16.95;;
38312;SDS011;24114;52.260;6.714;2023-05-07T01:25:35;18.85;;;17.17;;
38312;SDS011;24114;52.260;6.714;2023-05-07T01:28:03;17.30;;;15.85;;
38312;SDS011;24114;52.260;6.714;2023-05-07T01:30:32;15.95;;;14.65;;
38312;SDS011;24114;52.260;6.714;2023-05-07T01:33:01;15.57;;;14.27;;
38312;SDS011;24114;52.260;6.714;2023-05-07T01:35:32;15.95;;;14.65;;
38312;SDS011;24114;52.260;6.714;2023-05-07T01:38:03;15.55;;;14.32;;
38312;SDS011;24114;52.260;6.714;2023-05-07T01:40:33;17.48;;;16.02;;
38312;SDS011;24114;52.260;6.714;2023-05-07T01:43:02;15.68;;;14.38;;
38312;SDS011;24114;52.260;6.714;2023-05-07T01:45:30;16.63;;;15.32;;
38312;SDS011;24114;52.260;6.714;2023-05-07T01:47:58;15.68;;;14.38;;
38312;SDS011;24114;52.260;6.714;2023-05-07T01:50:26;15.52;;;14.32;;
38312;SDS011;24114;52.260;6.714;2023-05-07T01:52:54;17.15;;;15.73;;
38312;SDS011;24114;52.260;6.714;2023-05-07T01:55:22;15.07;;;13.88;;
38312;SDS011;24114;52.260;6.714;2023-05-07T01:57:51;16.80;;;15.40;;
38312;SDS011;24114;52.260;6.714;2023-05-07T02:00:19;16.13;;;14.73;;
38312;SDS011;24114;52.260;6.714;2023-05-07T02:02:47;16.70;;;15.20;;
38312;SDS011;24114;52.260;6.714;2023-05-07T02:05:15;16.90;;;15.40;;
38312;SDS011;24114;52.260;6.714;2023-05-07T02:07:43;15.90;;;14.45;;
38312;SDS011;24114;52.260;6.714;2023-05-07T02:10:11;16.97;;;15.47;;
38312;SDS011;24114;52.260;6.714;2023-05-07T02:12:39;16.55;;;15.05;;
38312;SDS011;24114;52.260;6.714;2023-05-07T02:15:09;16.13;;;14.73;;
38312;SDS011;24114;52.260;6.714;2023-05-07T02:17:39;17.60;;;15.83;;
38312;SDS011;24114;52.260;6.714;2023-05-07T02:20:07;15.80;;;14.30;;
38312;SDS011;24114;52.260;6.714;2023-05-07T02:22:39;16.98;;;15.30;;
38312;SDS011;24114;52.260;6.714;2023-05-07T02:25:07;16.40;;;14.90;;
38312;SDS011;24114;52.260;6.714;2023-05-07T02:27:35;16.63;;;15.05;;
38312;SDS011;24114;52.260;6.714;2023-05-07T02:30:03;17.23;;;15.65;;
38312;SDS011;24114;52.260;6.714;2023-05-07T02:32:33;16.60;;;15.10;;
38312;SDS011;24114;52.260;6.714;2023-05-07T02:35:01;16.00;;;14.45;;
38312;SDS011;24114;52.260;6.714;2023-05-07T02:37:29;17.48;;;15.88;;
38312;SDS011;24114;52.260;6.714;2023-05-07T02:39:56;16.93;;;15.33;;
38312;SDS011;24114;52.260;6.714;2023-05-07T02:42:24;17.50;;;15.90;;
38312;SDS011;24114;52.260;6.714;2023-05-07T02:44:52;18.42;;;16.63;;
38312;SDS011;24114;52.260;6.714;2023-05-07T02:47:19;18.13;;;16.33;;
38312;SDS011;24114;52.260;6.714;2023-05-07T02:49:48;18.15;;;16.35;;
38312;SDS011;24114;52.260;6.714;2023-05-07T02:52:16;18.00;;;16.27;;
38312;SDS011;24114;52.260;6.714;2023-05-07T02:54:44;16.95;;;15.27;;
38312;SDS011;24114;52.260;6.714;2023-05-07T02:57:11;17.83;;;16.08;;
38312;SDS011;24114;52.260;6.714;2023-05-07T02:59:39;19.45;;;17.55;;
38312;SDS011;24114;52.260;6.714;2023-05-07T03:02:07;17.23;;;15.48;;
38312;SDS011;24114;52.260;6.714;2023-05-07T03:04:34;18.80;;;17.00;;
38312;SDS011;24114;52.260;6.714;2023-05-07T03:07:04;19.65;;;17.65;;
38312;SDS011;24114;52.260;6.714;2023-05-07T03:09:32;20.98;;;18.73;;
38312;SDS011;24114;52.260;6.714;2023-05-07T03:11:59;20.17;;;18.25;;
38312;SDS011;24114;52.260;6.714;2023-05-07T03:14:28;21.02;;;18.95;;
38312;SDS011;24114;52.260;6.714;2023-05-07T03:16:55;20.33;;;18.25;;
38312;SDS011;24114;52.260;6.714;2023-05-07T03:19:23;20.17;;;18.17;;
38312;SDS011;24114;52.260;6.714;2023-05-07T03:21:51;20.48;;;18.52;;
38312;SDS011;24114;52.260;6.714;2023-05-07T03:24:20;21.45;;;19.45;;
38312;SDS011;24114;52.260;6.714;2023-05-07T03:26:48;19.58;;;17.67;;
38312;SDS011;24114;52.260;6.714;2023-05-07T03:29:15;21.80;;;19.50;;
38312;SDS011;24114;52.260;6.714;2023-05-07T03:31:43;21.67;;;19.48;;
38312;SDS011;24114;52.260;6.714;2023-05-07T03:34:11;20.53;;;18.53;;
38312;SDS011;24114;52.260;6.714;2023-05-07T03:36:39;21.15;;;19.10;;
38312;SDS011;24114;52.260;6.714;2023-05-07T03:39:07;21.15;;;19.15;;
38312;SDS011;24114;52.260;6.714;2023-05-07T03:41:36;22.38;;;20.20;;
38312;SDS011;24114;52.260;6.714;2023-05-07T03:44:04;22.38;;;20.23;;
38312;SDS011;24114;52.260;6.714;2023-05-07T03:46:32;23.83;;;21.50;;
38312;SDS011;24114;52.260;6.714;2023-05-07T03:49:00;21.17;;;19.17;;
38312;SDS011;24114;52.260;6.714;2023-05-07T03:51:28;23.30;;;21.07;;
38312;SDS011;24114;52.260;6.714;2023-05-07T03:53:56;22.50;;;20.27;;
38312;SDS011;24114;52.260;6.714;2023-05-07T03:56:24;23.40;;;21.13;;
38312;SDS011;24114;52.260;6.714;2023-05-07T03:58:54;24.50;;;22.03;;
38312;SDS011;24114;52.260;6.714;2023-05-07T04:01:22;23.27;;;20.98;;
38312;SDS011;24114;52.260;6.714;2023-05-07T04:03:49;22.27;;;20.00;;
38312;SDS011;24114;52.260;6.714;2023-05-07T04:06:17;23.93;;;21.50;;
38312;SDS011;24114;52.260;6.714;2023-05-07T04:08:45;23.08;;;20.77;;
38312;SDS011;24114;52.260;6.714;2023-05-07T04:11:13;22.83;;;20.63;;
38312;SDS011;24114;52.260;6.714;2023-05-07T04:13:40;24.73;;;22.23;;
38312;SDS011;24114;52.260;6.714;2023-05-07T04:16:09;23.37;;;21.00;;
38312;SDS011;24114;52.260;6.714;2023-05-07T04:18:37;23.10;;;20.98;;
38312;SDS011;24114;52.260;6.714;2023-05-07T04:21:05;22.40;;;20.30;;
38312;SDS011;24114;52.260;6.714;2023-05-07T04:23:33;23.10;;;20.80;;
38312;SDS011;24114;52.260;6.714;2023-05-07T04:26:00;23.48;;;21.27;;
38312;SDS011;24114;52.260;6.714;2023-05-07T04:28:29;23.45;;;21.15;;
38312;SDS011;24114;52.260;6.714;2023-05-07T04:30:57;23.23;;;20.98;;
38312;SDS011;24114;52.260;6.714;2023-05-07T04:33:26;22.73;;;20.42;;
38312;SDS011;24114;52.260;6.714;2023-05-07T04:35:54;22.15;;;19.95;;
38312;SDS011;24114;52.260;6.714;2023-05-07T04:38:21;23.08;;;20.77;;
38312;SDS011;24114;52.260;6.714;2023-05-07T04:40:49;22.80;;;20.50;;
38312;SDS011;24114;52.260;6.714;2023-05-07T04:43:17;22.35;;;20.15;;
38312;SDS011;24114;52.260;6.714;2023-05-07T04:45:45;23.88;;;21.42;;
38312;SDS011;24114;52.260;6.714;2023-05-07T04:48:12;23.27;;;21.00;;
38312;SDS011;24114;52.260;6.714;2023-05-07T04:50:43;23.13;;;20.83;;
38312;SDS011;24114;52.260;6.714;2023-05-07T04:53:11;23.42;;;21.23;;
38312;SDS011;24114;52.260;6.714;2023-05-07T04:55:39;22.95;;;20.70;;
38312;SDS011;24114;52.260;6.714;2023-05-07T04:58:07;24.83;;;22.33;;
38312;SDS011;24114;52.260;6.714;2023-05-07T05:00:35;23.50;;;21.20;;
38312;SDS011;24114;52.260;6.714;2023-05-07T05:03:03;24.67;;;22.20;;
38312;SDS011;24114;52.260;6.714;2023-05-07T05:05:31;23.95;;;21.45;;
38312;SDS011;24114;52.260;6.714;2023-05-07T05:08:00;24.87;;;22.33;;
38312;SDS011;24114;52.260;6.714;2023-05-07T05:10:28;24.73;;;22.23;;
38312;SDS011;24114;52.260;6.714;2023-05-07T05:12:56;25.95;;;23.35;;
38312;SDS011;24114;52.260;6.714;2023-05-07T05:15:23;25.42;;;22.83;;
38312;SDS011;24114;52.260;6.714;2023-05-07T05:17:51;24.20;;;21.77;;
38312;SDS011;24114;52.260;6.714;2023-05-07T05:20:19;23.25;;;20.95;;
38312;SDS011;24114;52.260;6.714;2023-05-07T05:22:47;24.65;;;22.10;;
38312;SDS011;24114;52.260;6.714;2023-05-07T05:25:16;23.92;;;21.50;;
38312;SDS011;24114;52.260;6.714;2023-05-07T05:27:44;25.65;;;22.98;;
38312;SDS011;24114;52.260;6.714;2023-05-07T05:30:12;23.95;;;21.48;;
38312;SDS011;24114;52.260;6.714;2023-05-07T05:32:40;24.17;;;21.77;;
38312;SDS011;24114;52.260;6.714;2023-05-07T05:35:08;25.50;;;23.00;;
38312;SDS011;24114;52.260;6.714;2023-05-07T05:37:35;24.35;;;21.95;;
38312;SDS011;24114;52.260;6.714;2023-05-07T05:40:03;25.02;;;22.42;;
38312;SDS011;24114;52.260;6.714;2023-05-07T05:42:33;25.08;;;22.48;;
38312;SDS011;24114;52.260;6.714;2023-05-07T05:45:01;26.70;;;23.83;;
38312;SDS011;24114;52.260;6.714;2023-05-07T05:47:29;26.07;;;23.33;;
38312;SDS011;24114;52.260;6.714;2023-05-07T05:49:57;25.50;;;22.90;;
38312;SDS011;24114;52.260;6.714;2023-05-07T05:52:25;25.63;;;22.92;;
38312;SDS011;24114;52.260;6.714;2023-05-07T05:54:53;24.87;;;22.33;;
38312;SDS011;24114;52.260;6.714;2023-05-07T05:57:20;25.45;;;22.95;;
38312;SDS011;24114;52.260;6.714;2023-05-07T05:59:50;26.42;;;23.70;;
38312;SDS011;24114;52.260;6.714;2023-05-07T06:02:18;26.40;;;23.63;;
38312;SDS011;24114;52.260;6.714;2023-05-07T06:04:45;25.38;;;22.88;;
38312;SDS011;24114;52.260;6.714;2023-05-07T06:07:13;27.58;;;24.65;;
38312;SDS011;24114;52.260;6.714;2023-05-07T06:09:41;27.00;;;23.85;;
38312;SDS011;24114;52.260;6.714;2023-05-07T06:12:09;25.90;;;23.27;;
38312;SDS011;24114;52.260;6.714;2023-05-07T06:14:36;27.30;;;24.50;;
38312;SDS011;24114;52.260;6.714;2023-05-07T06:17:05;26.27;;;23.58;;
38312;SDS011;24114;52.260;6.714;2023-05-07T06:19:33;24.55;;;22.15;;
38312;SDS011;24114;52.260;6.714;2023-05-07T06:22:01;26.08;;;23.38;;
38312;SDS011;24114;52.260;6.714;2023-05-07T06:24:29;25.13;;;22.63;;
38312;SDS011;24114;52.260;6.714;2023-05-07T06:26:57;26.20;;;23.45;;
38312;SDS011;24114;52.260;6.714;2023-05-07T06:29:25;26.17;;;23.38;;
38312;SDS011;24114;52.260;6.714;2023-05-07T06:31:53;27.77;;;24.88;;
38312;SDS011;24114;52.260;6.714;2023-05-07T06:34:22;24.33;;;21.73;;
38312;SDS011;24114;52.260;6.714;2023-05-07T06:36:49;26.55;;;23.85;;
38312;SDS011;24114;52.260;6.714;2023-05-07T06:39:17;25.80;;;23.10;;
38312;SDS011;24114;52.260;6.714;2023-05-07T06:41:45;25.57;;;22.97;;
38312;SDS011;24114;52.260;6.714;2023-05-07T06:44:13;25.33;;;22.73;;
38312;SDS011;24114;52.260;6.714;2023-05-07T06:46:41;26.80;;;24.10;;
38312;SDS011;24114;52.260;6.714;2023-05-07T06:49:09;26.38;;;23.58;;
38312;SDS011;24114;52.260;6.714;2023-05-07T06:51:38;25.02;;;22.42;;
38312;SDS011;24114;52.260;6.714;2023-05-07T06:54:05;24.50;;;22.10;;
38312;SDS011;24114;52.260;6.714;2023-05-07T06:56:33;26.50;;;23.77;;
38312;SDS011;24114;52.260;6.714;2023-05-07T06:59:01;23.10;;;20.65;;
38312;SDS011;24114;52.260;6.714;2023-05-07T07:01:29;25.00;;;22.38;;
38312;SDS011;24114;52.260;6.714;2023-05-07T07:03:57;27.30;;;24.48;;
38312;SDS011;24114;52.260;6.714;2023-05-07T07:06:25;26.15;;;23.55;;
38312;SDS011;24114;52.260;6.714;2023-05-07T07:08:54;24.52;;;21.95;;
38312;SDS011;24114;52.260;6.714;2023-05-07T07:11:22;25.13;;;22.55;;
38312;SDS011;24114;52.260;6.714;2023-05-07T07:13:50;25.20;;;22.70;;
38312;SDS011;24114;52.260;6.714;2023-05-07T07:16:17;26.13;;;23.52;;
38312;SDS011;24114;52.260;6.714;2023-05-07T07:18:45;24.67;;;22.17;;
38312;SDS011;24114;52.260;6.714;2023-05-07T07:21:13;26.20;;;23.50;;
38312;SDS011;24114;52.260;6.714;2023-05-07T07:23:41;26.17;;;23.48;;
38312;SDS011;24114;52.260;6.714;2023-05-07T07:26:10;25.10;;;22.60;;
38312;SDS011;24114;52.260;6.714;2023-05-07T07:28:42;24.90;;;22.25;;
38312;SDS011;24114;52.260;6.714;2023-05-07T07:31:11;26.58;;;23.75;;
38312;SDS011;24114;52.260;6.714;2023-05-07T07:33:39;27.03;;;24.23;;
38312;SDS011;24114;52.260;6.714;2023-05-07T07:36:06;25.10;;;22.60;;
38312;SDS011;24114;52.260;6.714;2023-05-07T07:38:34;26.65;;;23.95;;
38312;SDS011;24114;52.260;6.714;2023-05-07T07:41:02;25.55;;;22.92;;
38312;SDS011;24114;52.260;6.714;2023-05-07T07:43:31;25.50;;;22.90;;
38312;SDS011;24114;52.260;6.714;2023-05-07T07:45:59;27.05;;;24.35;;
38312;SDS011;24114;52.260;6.714;2023-05-07T07:48:27;24.90;;;22.30;;
38312;SDS011;24114;52.260;6.714;2023-05-07T07:50:55;27.50;;;24.57;;
38312;SDS011;24114;52.260;6.714;2023-05-07T07:53:23;26.73;;;23.88;;
38312;SDS011;24114;52.260;6.714;2023-05-07T07:55:51;24.70;;;22.30;;
38312;SDS011;24114;52.260;6.714;2023-05-07T07:58:24;27.10;;;24.30;;
38312;SDS011;24114;52.260;6.714;2023-05-07T08:00:53;26.25;;;23.63;;
38312;SDS011;24114;52.260;6.714;2023-05-07T08:03:22;26.25;;;23.55;;
38312;SDS011;24114;52.260;6.714;2023-05-07T08:05:50;25.58;;;22.98;;
38312;SDS011;24114;52.260;6.714;2023-05-07T08:08:17;25.93;;;23.33;;
38312;SDS011;24114;52.260;6.714;2023-05-07T08:10:45;24.30;;;21.90;;
38312;SDS011;24114;52.260;6.714;2023-05-07T08:13:16;24.73;;;22.35;;
38312;SDS011;24114;52.260;6.714;2023-05-07T08:15:44;23.83;;;21.48;;
38312;SDS011;24114;52.260;6.714;2023-05-07T08:18:13;24.95;;;22.33;;
38312;SDS011;24114;52.260;6.714;2023-05-07T08:20:41;23.38;;;21.00;;
38312;SDS011;24114;52.260;6.714;2023-05-07T08:23:09;23.38;;;21.02;;
38312;SDS011;24114;52.260;6.714;2023-05-07T08:25:37;24.92;;;22.45;;
38312;SDS011;24114;52.260;6.714;2023-05-07T08:28:04;25.70;;;22.75;;
38312;SDS011;24114;52.260;6.714;2023-05-07T08:30:35;24.88;;;22.30;;
38312;SDS011;24114;52.260;6.714;2023-05-07T08:33:02;24.33;;;21.83;;
38312;SDS011;24114;52.260;6.714;2023-05-07T08:35:32;24.42;;;22.02;;
38312;SDS011;24114;52.260;6.714;2023-05-07T08:37:59;23.60;;;21.30;;
38312;SDS011;24114;52.260;6.714;2023-05-07T08:40:27;24.80;;;22.40;;
38312;SDS011;24114;52.260;6.714;2023-05-07T08:42:56;24.60;;;22.20;;
38312;SDS011;24114;52.260;6.714;2023-05-07T08:45:24;23.70;;;21.40;;
38312;SDS011;24114;52.260;6.714;2023-05-07T08:47:54;23.25;;;20.95;;
38312;SDS011;24114;52.260;6.714;2023-05-07T08:50:25;24.55;;;22.05;;
38312;SDS011;24114;52.260;6.714;2023-05-07T08:52:54;21.95;;;19.83;;
38312;SDS011;24114;52.260;6.714;2023-05-07T08:55:22;23.58;;;21.05;;
38312;SDS011;24114;52.260;6.714;2023-05-07T08:57:51;22.65;;;20.55;;
38312;SDS011;24114;52.260;6.714;2023-05-07T09:00:19;23.07;;;20.77;;
38312;SDS011;24114;52.260;6.714;2023-05-07T09:02:47;23.88;;;21.50;;
38312;SDS011;24114;52.260;6.714;2023-05-07T09:05:14;21.77;;;19.67;;
38312;SDS011;24114;52.260;6.714;2023-05-07T09:07:42;21.98;;;19.88;;
38312;SDS011;24114;52.260;6.714;2023-05-07T09:10:12;22.67;;;20.48;;
38312;SDS011;24114;52.260;6.714;2023-05-07T09:12:40;22.47;;;20.33;;
38312;SDS011;24114;52.260;6.714;2023-05-07T09:15:08;22.67;;;20.30;;
38312;SDS011;24114;52.260;6.714;2023-05-07T09:17:37;22.40;;;20.13;;
38312;SDS011;24114;52.260;6.714;2023-05-07T09:20:05;23.00;;;20.60;;
38312;SDS011;24114;52.260;6.714;2023-05-07T09:22:36;21.40;;;19.30;;
38312;SDS011;24114;52.260;6.714;2023-05-07T09:25:05;20.92;;;18.85;;
38312;SDS011;24114;52.260;6.714;2023-05-07T09:27:35;21.42;;;19.33;;
38312;SDS011;24114;52.260;6.714;2023-05-07T09:30:03;22.05;;;19.95;;
38312;SDS011;24114;52.260;6.714;2023-05-07T09:32:34;21.55;;;19.45;;
38312;SDS011;24114;52.260;6.714;2023-05-07T09:35:02;21.92;;;19.73;;
38312;SDS011;24114;52.260;6.714;2023-05-07T09:37:30;20.75;;;18.75;;
38312;SDS011;24114;52.260;6.714;2023-05-07T09:39:58;21.25;;;19.20;;
38312;SDS011;24114;52.260;6.714;2023-05-07T09:42:26;20.47;;;18.57;;
38312;SDS011;24114;52.260;6.714;2023-05-07T09:44:55;20.40;;;18.45;;
38312;SDS011;24114;52.260;6.714;2023-05-07T09:47:23;19.60;;;17.70;;
38312;SDS011;24114;52.260;6.714;2023-05-07T09:49:56;20.55;;;18.63;;
38312;SDS011;24114;52.260;6.714;2023-05-07T09:52:25;20.42;;;18.35;;
38312;SDS011;24114;52.260;6.714;2023-05-07T09:54:54;20.42;;;18.42;;
38312;SDS011;24114;52.260;6.714;2023-05-07T09:57:25;21.63;;;19.40;;
38312;SDS011;24114;52.260;6.714;2023-05-07T09:59:53;20.48;;;18.50;;
38312;SDS011;24114;52.260;6.714;2023-05-07T10:02:23;20.20;;;18.20;;
38312;SDS011;24114;52.260;6.714;2023-05-07T10:04:51;19.77;;;17.67;;
38312;SDS011;24114;52.260;6.714;2023-05-07T10:07:19;19.40;;;17.52;;
38312;SDS011;24114;52.260;6.714;2023-05-07T10:09:49;19.33;;;17.52;;
38312;SDS011;24114;52.260;6.714;2023-05-07T10:12:17;18.98;;;17.25;;
38312;SDS011;24114;52.260;6.714;2023-05-07T10:14:46;19.45;;;17.48;;
38312;SDS011;24114;52.260;6.714;2023-05-07T10:17:17;18.50;;;16.77;;
38312;SDS011;24114;52.260;6.714;2023-05-07T10:19:45;18.73;;;17.02;;
38312;SDS011;24114;52.260;6.714;2023-05-07T10:22:13;19.70;;;17.85;;
38312;SDS011;24114;52.260;6.714;2023-05-07T10:24:41;18.30;;;16.50;;
38312;SDS011;24114;52.260;6.714;2023-05-07T10:27:10;18.73;;;16.92;;
38312;SDS011;24114;52.260;6.714;2023-05-07T10:29:43;18.10;;;16.40;;
38312;SDS011;24114;52.260;6.714;2023-05-07T10:32:26;18.77;;;16.98;;
38312;SDS011;24114;52.260;6.714;2023-05-07T10:35:02;18.48;;;16.77;;
38312;SDS011;24114;52.260;6.714;2023-05-07T10:37:33;19.45;;;17.45;;
38312;SDS011;24114;52.260;6.714;2023-05-07T10:40:02;17.98;;;16.25;;
38312;SDS011;24114;52.260;6.714;2023-05-07T10:42:30;19.08;;;17.20;;
38312;SDS011;24114;52.260;6.714;2023-05-07T10:44:58;18.42;;;16.73;;
38312;SDS011;24114;52.260;6.714;2023-05-07T10:50:53;18.83;;;16.80;;
38312;SDS011;24114;52.260;6.714;2023-05-07T10:53:47;17.80;;;16.10;;
38312;SDS011;24114;52.260;6.714;2023-05-07T10:56:25;19.15;;;17.35;;
38312;SDS011;24114;52.260;6.714;2023-05-07T11:02:08;17.27;;;15.60;;
38312;SDS011;24114;52.260;6.714;2023-05-07T11:04:39;17.38;;;15.77;;
38312;SDS011;24114;52.260;6.714;2023-05-07T11:07:27;18.50;;;16.80;;
38312;SDS011;24114;52.260;6.714;2023-05-07T11:10:05;17.80;;;16.10;;
38312;SDS011;24114;52.260;6.714;2023-05-07T11:12:49;17.30;;;15.60;;
38312;SDS011;24114;52.260;6.714;2023-05-07T13:00:41;8.90;;;8.10;;
38312;SDS011;24114;52.260;6.714;2023-05-07T13:03:09;9.52;;;8.55;;
38312;SDS011;24114;52.260;6.714;2023-05-07T13:05:37;9.63;;;8.73;;
38312;SDS011;24114;52.260;6.714;2023-05-07T13:08:05;9.32;;;8.43;;
38312;SDS011;24114;52.260;6.714;2023-05-07T13:10:33;8.25;;;7.45;;
38312;SDS011;24114;52.260;6.714;2023-05-07T13:13:01;9.75;;;8.75;;
38312;SDS011;24114;52.260;6.714;2023-05-07T13:15:29;14.00;;;9.32;;
38312;SDS011;24114;52.260;6.714;2023-05-07T13:17:58;9.82;;;8.90;;
38312;SDS011;24114;52.260;6.714;2023-05-07T13:20:26;12.15;;;9.48;;
38312;SDS011;24114;52.260;6.714;2023-05-07T13:22:54;10.80;;;9.32;;
38312;SDS011;24114;52.260;6.714;2023-05-07T13:25:21;9.43;;;8.40;;
38312;SDS011;24114;52.260;6.714;2023-05-07T13:27:49;10.55;;;9.50;;
38312;SDS011;24114;52.260;6.714;2023-05-07T13:30:35;11.88;;;8.80;;
38312;SDS011;24114;52.260;6.714;2023-05-07T13:33:04;14.02;;;8.95;;
38312;SDS011;24114;52.260;6.714;2023-05-07T13:35:32;10.43;;;9.43;;
38312;SDS011;24114;52.260;6.714;2023-05-07T13:38:00;11.32;;;9.68;;
38312;SDS011;24114;52.260;6.714;2023-05-07T13:40:27;10.88;;;9.90;;
38312;SDS011;24114;52.260;6.714;2023-05-07T13:42:56;10.00;;;8.57;;
38312;SDS011;24114;52.260;6.714;2023-05-07T13:45:25;9.25;;;8.40;;
38312;SDS011;24114;52.260;6.714;2023-05-07T13:47:55;9.25;;;8.25;;
38312;SDS011;24114;52.260;6.714;2023-05-07T13:50:44;8.60;;;7.80;;
38312;SDS011;24114;52.260;6.714;2023-05-07T13:53:11;8.25;;;7.45;;
38312;SDS011;24114;52.260;6.714;2023-05-07T13:55:41;11.05;;;8.27;;
38312;SDS011;24114;52.260;6.714;2023-05-07T13:58:09;7.53;;;6.80;;
38312;SDS011;24114;52.260;6.714;2023-05-07T14:00:37;8.63;;;6.93;;
38312;SDS011;24114;52.260;6.714;2023-05-07T14:03:05;8.82;;;7.15;;
38312;SDS011;24114;52.260;6.714;2023-05-07T14:05:32;7.90;;;7.15;;
38312;SDS011;24114;52.260;6.714;2023-05-07T14:08:02;7.63;;;6.93;;
38312;SDS011;24114;52.260;6.714;2023-05-07T14:10:31;8.52;;;7.10;;
38312;SDS011;24114;52.260;6.714;2023-05-07T14:13:00;7.22;;;6.60;;
38312;SDS011;24114;52.260;6.714;2023-05-07T14:15:28;8.43;;;6.18;;
38312;SDS011;24114;52.260;6.714;2023-05-07T14:17:56;8.23;;;7.40;;
38312;SDS011;24114;52.260;6.714;2023-05-07T14:20:25;7.55;;;6.88;;
38312;SDS011;24114;52.260;6.714;2023-05-07T14:22:53;8.38;;;6.72;;
38312;SDS011;24114;52.260;6.714;2023-05-07T14:25:24;8.52;;;7.22;;
38312;SDS011;24114;52.260;6.714;2023-05-07T14:27:52;9.57;;;7.30;;
38312;SDS011;24114;52.260;6.714;2023-05-07T14:30:20;8.18;;;6.65;;
38312;SDS011;24114;52.260;6.714;2023-05-07T14:32:50;14.55;;;6.65;;
38312;SDS011;24114;52.260;6.714;2023-05-07T14:35:18;6.93;;;6.13;;
38312;SDS011;24114;52.260;6.714;2023-05-07T14:37:46;6.63;;;6.03;;
38312;SDS011;24114;52.260;6.714;2023-05-07T14:40:13;7.80;;;5.57;;
38312;SDS011;24114;52.260;6.714;2023-05-07T14:42:43;5.40;;;4.82;;
38312;SDS011;24114;52.260;6.714;2023-05-07T14:45:10;6.88;;;6.18;;
38312;SDS011;24114;52.260;6.714;2023-05-07T15:44:05;6.40;;;5.90;;
38312;SDS011;24114;52.260;6.714;2023-05-07T15:46:33;7.13;;;6.43;;
38312;SDS011;24114;52.260;6.714;2023-05-07T15:49:01;6.57;;;5.97;;
38312;SDS011;24114;52.260;6.714;2023-05-07T15:51:30;6.93;;;6.40;;
38312;SDS011;24114;52.260;6.714;2023-05-07T15:53:58;6.35;;;5.82;;
38312;SDS011;24114;52.260;6.714;2023-05-07T15:56:25;7.28;;;6.57;;
38312;SDS011;24114;52.260;6.714;2023-05-07T15:58:53;6.50;;;5.90;;
38312;SDS011;24114;52.260;6.714;2023-05-07T16:01:22;6.20;;;5.70;;
38312;SDS011;24114;52.260;6.714;2023-05-07T16:03:51;6.00;;;5.50;;
38312;SDS011;24114;52.260;6.714;2023-05-07T16:06:19;7.10;;;6.50;;
38312;SDS011;24114;52.260;6.714;2023-05-07T16:08:46;7.55;;;6.93;;
38312;SDS011;24114;52.260;6.714;2023-05-07T16:11:14;9.03;;;8.13;;
38312;SDS011;24114;52.260;6.714;2023-05-07T16:13:42;8.50;;;7.70;;
38312;SDS011;24114;52.260;6.714;2023-05-07T16:16:10;8.97;;;8.27;;
38312;SDS011;24114;52.260;6.714;2023-05-07T16:18:39;8.70;;;8.00;;
38312;SDS011;24114;52.260;6.714;2023-05-07T16:21:07;8.60;;;7.80;;
38312;SDS011;24114;52.260;6.714;2023-05-07T16:23:35;8.00;;;7.20;;
38312;SDS011;24114;52.260;6.714;2023-05-07T16:26:03;8.68;;;7.82;;
38312;SDS011;24114;52.260;6.714;2023-05-07T16:28:31;8.20;;;7.50;;
38312;SDS011;24114;52.260;6.714;2023-05-07T16:30:58;7.88;;;7.28;;
38312;SDS011;24114;52.260;6.714;2023-05-07T16:33:27;8.13;;;7.43;;
38312;SDS011;24114;52.260;6.714;2023-05-07T16:35:56;8.02;;;7.30;;
38312;SDS011;24114;52.260;6.714;2023-05-07T16:38:23;8.37;;;7.40;;
38312;SDS011;24114;52.260;6.714;2023-05-07T16:40:52;7.57;;;6.88;;
38312;SDS011;24114;52.260;6.714;2023-05-07T16:43:19;7.85;;;7.03;;
38312;SDS011;24114;52.260;6.714;2023-05-07T16:45:47;6.70;;;6.10;;
38312;SDS011;24114;52.260;6.714;2023-05-07T16:48:15;6.88;;;6.28;;
38312;SDS011;24114;52.260;6.714;2023-05-07T16:50:46;6.87;;;6.33;;
38312;SDS011;24114;52.260;6.714;2023-05-07T16:53:15;7.32;;;6.72;;
38312;SDS011;24114;52.260;6.714;2023-05-07T16:55:42;7.60;;;6.80;;
38312;SDS011;24114;52.260;6.714;2023-05-07T16:58:10;6.45;;;5.90;;
38312;SDS011;24114;52.260;6.714;2023-05-07T17:00:39;7.78;;;6.40;;
38312;SDS011;24114;52.260;6.714;2023-05-07T17:03:16;7.30;;;6.70;;
38312;SDS011;24114;52.260;6.714;2023-05-07T17:05:45;7.05;;;6.20;;
38312;SDS011;24114;52.260;6.714;2023-05-07T17:08:12;6.45;;;5.95;;
38312;SDS011;24114;52.260;6.714;2023-05-07T17:10:42;6.60;;;6.05;;
38312;SDS011;24114;52.260;6.714;2023-05-07T17:13:11;7.13;;;6.53;;
38312;SDS011;24114;52.260;6.714;2023-05-07T17:15:39;6.20;;;5.70;;
38312;SDS011;24114;52.260;6.714;2023-05-07T17:18:08;6.65;;;6.05;;
38312;SDS011;24114;52.260;6.714;2023-05-07T17:20:36;6.60;;;6.10;;
38312;SDS011;24114;52.260;6.714;2023-05-07T17:23:05;6.60;;;6.10;;
38312;SDS011;24114;52.260;6.714;2023-05-07T17:25:34;6.30;;;5.80;;